Terminal Aerodrome Forecast
Issued by NWS Wilmington, OH

Current Version | Previous Version | Graphics & Text | Print | Product List | Glossary On
Versions: 1 2 3 4 5 6 7 8 9 10 11 12 13 14 15 16 17 18 19 20
395
FTUS41 KILN 241748
TAFCMH
TAF
KCMH 241748Z 2418/2518 12007KT P6SM VCSH SCT015 OVC025
     FM250300 14007KT P6SM VCSH BKN015 OVC025
     FM250700 18007KT P6SM VCSH OVC015=

USA.gov is the U.S. government's official web portal to all federal, state and local government web resources and services.